sensor_id;sensor_type;location;lat;lon;timestamp;P1;durP1;ratioP1;P2;durP2;ratioP2
4738;SDS011;2383;48.632;10.156;2023-07-31T00:02:23;3.20;;;1.80;;
4738;SDS011;2383;48.632;10.156;2023-07-31T00:06:26;3.40;;;1.63;;
4738;SDS011;2383;48.632;10.156;2023-07-31T00:10:28;4.15;;;2.20;;
4738;SDS011;2383;48.632;10.156;2023-07-31T00:14:30;3.53;;;1.70;;
4738;SDS011;2383;48.632;10.156;2023-07-31T00:18:32;4.57;;;1.95;;
4738;SDS011;2383;48.632;10.156;2023-07-31T00:22:34;5.00;;;1.70;;
4738;SDS011;2383;48.632;10.156;2023-07-31T00:26:37;2.92;;;1.77;;
4738;SDS011;2383;48.632;10.156;2023-07-31T00:30:40;3.88;;;1.88;;
4738;SDS011;2383;48.632;10.156;2023-07-31T00:34:42;2.88;;;1.73;;
4738;SDS011;2383;48.632;10.156;2023-07-31T00:38:43;2.45;;;1.92;;
4738;SDS011;2383;48.632;10.156;2023-07-31T00:42:45;3.85;;;1.95;;
4738;SDS011;2383;48.632;10.156;2023-07-31T00:46:49;2.97;;;2.00;;
4738;SDS011;2383;48.632;10.156;2023-07-31T00:50:50;3.30;;;1.60;;
4738;SDS011;2383;48.632;10.156;2023-07-31T00:54:52;4.68;;;1.80;;
4738;SDS011;2383;48.632;10.156;2023-07-31T00:58:55;5.95;;;1.83;;
4738;SDS011;2383;48.632;10.156;2023-07-31T01:02:57;3.80;;;1.73;;
4738;SDS011;2383;48.632;10.156;2023-07-31T01:07:07;4.38;;;2.05;;
4738;SDS011;2383;48.632;10.156;2023-07-31T01:11:15;4.45;;;1.98;;
4738;SDS011;2383;48.632;10.156;2023-07-31T01:15:21;2.65;;;1.70;;
4738;SDS011;2383;48.632;10.156;2023-07-31T01:19:24;3.00;;;2.15;;
4738;SDS011;2383;48.632;10.156;2023-07-31T01:23:35;5.07;;;1.85;;
4738;SDS011;2383;48.632;10.156;2023-07-31T01:28:02;3.90;;;1.80;;
4738;SDS011;2383;48.632;10.156;2023-07-31T01:32:08;3.03;;;2.10;;
4738;SDS011;2383;48.632;10.156;2023-07-31T01:36:12;5.80;;;2.05;;
4738;SDS011;2383;48.632;10.156;2023-07-31T01:40:14;3.63;;;1.73;;
4738;SDS011;2383;48.632;10.156;2023-07-31T01:44:16;2.72;;;1.60;;
4738;SDS011;2383;48.632;10.156;2023-07-31T01:48:18;4.38;;;1.95;;
4738;SDS011;2383;48.632;10.156;2023-07-31T01:52:19;4.00;;;2.25;;
4738;SDS011;2383;48.632;10.156;2023-07-31T01:56:22;4.25;;;2.13;;
4738;SDS011;2383;48.632;10.156;2023-07-31T02:00:24;4.25;;;2.20;;
4738;SDS011;2383;48.632;10.156;2023-07-31T02:04:26;2.75;;;1.73;;
4738;SDS011;2383;48.632;10.156;2023-07-31T02:08:28;3.67;;;1.70;;
4738;SDS011;2383;48.632;10.156;2023-07-31T02:12:30;4.15;;;1.90;;
4738;SDS011;2383;48.632;10.156;2023-07-31T02:16:33;1.70;;;1.42;;
4738;SDS011;2383;48.632;10.156;2023-07-31T02:20:35;4.18;;;1.70;;
4738;SDS011;2383;48.632;10.156;2023-07-31T02:24:37;2.42;;;1.88;;
4738;SDS011;2383;48.632;10.156;2023-07-31T02:28:39;3.30;;;1.77;;
4738;SDS011;2383;48.632;10.156;2023-07-31T02:32:45;3.08;;;1.95;;
4738;SDS011;2383;48.632;10.156;2023-07-31T02:36:47;3.80;;;2.15;;
4738;SDS011;2383;48.632;10.156;2023-07-31T02:40:48;6.13;;;2.10;;
4738;SDS011;2383;48.632;10.156;2023-07-31T02:44:50;9.15;;;1.83;;
4738;SDS011;2383;48.632;10.156;2023-07-31T02:48:57;2.47;;;1.67;;
4738;SDS011;2383;48.632;10.156;2023-07-31T02:52:59;3.28;;;1.63;;
4738;SDS011;2383;48.632;10.156;2023-07-31T02:57:01;2.45;;;1.88;;
4738;SDS011;2383;48.632;10.156;2023-07-31T03:01:03;2.92;;;1.40;;
4738;SDS011;2383;48.632;10.156;2023-07-31T03:05:05;5.70;;;1.83;;
4738;SDS011;2383;48.632;10.156;2023-07-31T03:09:07;3.53;;;1.80;;
4738;SDS011;2383;48.632;10.156;2023-07-31T03:13:09;3.55;;;1.67;;
4738;SDS011;2383;48.632;10.156;2023-07-31T03:17:11;3.53;;;1.45;;
4738;SDS011;2383;48.632;10.156;2023-07-31T03:21:14;3.58;;;1.50;;
4738;SDS011;2383;48.632;10.156;2023-07-31T03:25:16;3.72;;;1.90;;
4738;SDS011;2383;48.632;10.156;2023-07-31T03:29:17;3.63;;;1.50;;
4738;SDS011;2383;48.632;10.156;2023-07-31T03:33:22;2.20;;;1.67;;
4738;SDS011;2383;48.632;10.156;2023-07-31T03:37:24;2.28;;;1.83;;
4738;SDS011;2383;48.632;10.156;2023-07-31T03:41:27;3.42;;;2.28;;
4738;SDS011;2383;48.632;10.156;2023-07-31T03:45:30;4.65;;;1.90;;
4738;SDS011;2383;48.632;10.156;2023-07-31T03:49:32;2.90;;;1.75;;
4738;SDS011;2383;48.632;10.156;2023-07-31T03:53:34;4.13;;;1.73;;
4738;SDS011;2383;48.632;10.156;2023-07-31T03:57:35;3.67;;;2.45;;
4738;SDS011;2383;48.632;10.156;2023-07-31T04:01:37;3.13;;;1.98;;
4738;SDS011;2383;48.632;10.156;2023-07-31T04:05:39;7.40;;;2.10;;
4738;SDS011;2383;48.632;10.156;2023-07-31T04:09:41;5.00;;;2.00;;
4738;SDS011;2383;48.632;10.156;2023-07-31T04:13:43;3.03;;;1.75;;
4738;SDS011;2383;48.632;10.156;2023-07-31T04:17:45;6.22;;;2.00;;
4738;SDS011;2383;48.632;10.156;2023-07-31T04:21:47;4.50;;;2.10;;
4738;SDS011;2383;48.632;10.156;2023-07-31T04:25:49;3.45;;;1.90;;
4738;SDS011;2383;48.632;10.156;2023-07-31T04:29:51;2.53;;;1.52;;
4738;SDS011;2383;48.632;10.156;2023-07-31T04:33:53;3.20;;;1.88;;
4738;SDS011;2383;48.632;10.156;2023-07-31T04:37:55;7.00;;;1.90;;
4738;SDS011;2383;48.632;10.156;2023-07-31T04:41:57;4.55;;;1.83;;
4738;SDS011;2383;48.632;10.156;2023-07-31T04:45:59;4.18;;;2.10;;
4738;SDS011;2383;48.632;10.156;2023-07-31T04:50:01;3.45;;;1.90;;
4738;SDS011;2383;48.632;10.156;2023-07-31T04:54:03;5.93;;;2.05;;
4738;SDS011;2383;48.632;10.156;2023-07-31T04:58:04;4.50;;;2.03;;
4738;SDS011;2383;48.632;10.156;2023-07-31T05:02:07;4.43;;;2.40;;
4738;SDS011;2383;48.632;10.156;2023-07-31T05:06:10;6.72;;;2.40;;
4738;SDS011;2383;48.632;10.156;2023-07-31T05:10:12;3.88;;;1.90;;
4738;SDS011;2383;48.632;10.156;2023-07-31T05:14:14;3.95;;;1.83;;
4738;SDS011;2383;48.632;10.156;2023-07-31T05:18:17;3.70;;;2.00;;
4738;SDS011;2383;48.632;10.156;2023-07-31T05:22:19;6.45;;;2.17;;
4738;SDS011;2383;48.632;10.156;2023-07-31T05:26:21;7.60;;;2.13;;
4738;SDS011;2383;48.632;10.156;2023-07-31T05:30:23;4.43;;;2.10;;
4738;SDS011;2383;48.632;10.156;2023-07-31T05:34:25;4.00;;;2.17;;
4738;SDS011;2383;48.632;10.156;2023-07-31T05:38:26;3.92;;;2.25;;
4738;SDS011;2383;48.632;10.156;2023-07-31T05:42:28;5.53;;;2.20;;
4738;SDS011;2383;48.632;10.156;2023-07-31T05:46:30;4.95;;;2.45;;
4738;SDS011;2383;48.632;10.156;2023-07-31T05:50:32;3.47;;;2.35;;
4738;SDS011;2383;48.632;10.156;2023-07-31T05:54:34;4.75;;;1.92;;
4738;SDS011;2383;48.632;10.156;2023-07-31T05:58:36;4.63;;;2.60;;
4738;SDS011;2383;48.632;10.156;2023-07-31T06:02:38;3.47;;;2.13;;
4738;SDS011;2383;48.632;10.156;2023-07-31T06:06:40;6.30;;;2.35;;
4738;SDS011;2383;48.632;10.156;2023-07-31T06:10:42;7.35;;;2.20;;
4738;SDS011;2383;48.632;10.156;2023-07-31T06:14:44;5.43;;;2.30;;
4738;SDS011;2383;48.632;10.156;2023-07-31T06:18:46;6.45;;;2.47;;
4738;SDS011;2383;48.632;10.156;2023-07-31T06:22:49;4.03;;;2.13;;
4738;SDS011;2383;48.632;10.156;2023-07-31T06:26:50;7.60;;;2.35;;
4738;SDS011;2383;48.632;10.156;2023-07-31T06:30:53;6.28;;;2.33;;
4738;SDS011;2383;48.632;10.156;2023-07-31T06:34:55;5.93;;;2.45;;
4738;SDS011;2383;48.632;10.156;2023-07-31T06:38:56;8.27;;;2.33;;
4738;SDS011;2383;48.632;10.156;2023-07-31T06:42:58;3.33;;;2.10;;
4738;SDS011;2383;48.632;10.156;2023-07-31T06:47:00;4.40;;;2.22;;
4738;SDS011;2383;48.632;10.156;2023-07-31T06:51:02;5.15;;;2.45;;
4738;SDS011;2383;48.632;10.156;2023-07-31T06:55:16;5.20;;;2.30;;
4738;SDS011;2383;48.632;10.156;2023-07-31T06:59:20;3.80;;;2.00;;
4738;SDS011;2383;48.632;10.156;2023-07-31T07:03:22;5.53;;;2.63;;
4738;SDS011;2383;48.632;10.156;2023-07-31T07:07:24;5.28;;;2.03;;
4738;SDS011;2383;48.632;10.156;2023-07-31T07:11:26;4.45;;;1.90;;
4738;SDS011;2383;48.632;10.156;2023-07-31T07:15:29;5.93;;;2.03;;
4738;SDS011;2383;48.632;10.156;2023-07-31T07:19:31;7.40;;;2.45;;
4738;SDS011;2383;48.632;10.156;2023-07-31T07:23:33;7.32;;;1.95;;
4738;SDS011;2383;48.632;10.156;2023-07-31T07:27:35;6.70;;;1.70;;
4738;SDS011;2383;48.632;10.156;2023-07-31T07:31:37;7.20;;;2.30;;
4738;SDS011;2383;48.632;10.156;2023-07-31T07:35:39;5.70;;;2.00;;
4738;SDS011;2383;48.632;10.156;2023-07-31T07:39:41;4.38;;;2.00;;
4738;SDS011;2383;48.632;10.156;2023-07-31T07:43:43;4.45;;;1.92;;
4738;SDS011;2383;48.632;10.156;2023-07-31T07:47:45;3.85;;;1.92;;
4738;SDS011;2383;48.632;10.156;2023-07-31T07:51:47;1.92;;;1.45;;
4738;SDS011;2383;48.632;10.156;2023-07-31T07:55:50;4.97;;;1.60;;
4738;SDS011;2383;48.632;10.156;2023-07-31T07:59:51;5.18;;;2.35;;
4738;SDS011;2383;48.632;10.156;2023-07-31T08:03:53;4.45;;;2.05;;
4738;SDS011;2383;48.632;10.156;2023-07-31T08:07:56;4.13;;;2.03;;
4738;SDS011;2383;48.632;10.156;2023-07-31T08:11:58;7.20;;;2.10;;
4738;SDS011;2383;48.632;10.156;2023-07-31T08:16:04;3.85;;;1.75;;
4738;SDS011;2383;48.632;10.156;2023-07-31T08:20:06;4.00;;;1.88;;
4738;SDS011;2383;48.632;10.156;2023-07-31T08:24:08;4.25;;;2.30;;
4738;SDS011;2383;48.632;10.156;2023-07-31T08:28:10;4.50;;;1.90;;
4738;SDS011;2383;48.632;10.156;2023-07-31T08:32:12;4.35;;;2.28;;
4738;SDS011;2383;48.632;10.156;2023-07-31T08:36:14;4.35;;;2.00;;
4738;SDS011;2383;48.632;10.156;2023-07-31T08:40:16;3.75;;;2.08;;
4738;SDS011;2383;48.632;10.156;2023-07-31T08:44:18;5.53;;;2.35;;
4738;SDS011;2383;48.632;10.156;2023-07-31T08:48:22;8.07;;;2.53;;
4738;SDS011;2383;48.632;10.156;2023-07-31T08:52:24;5.07;;;2.15;;
4738;SDS011;2383;48.632;10.156;2023-07-31T08:56:26;6.65;;;2.65;;
4738;SDS011;2383;48.632;10.156;2023-07-31T09:00:30;4.97;;;2.40;;
4738;SDS011;2383;48.632;10.156;2023-07-31T09:04:33;6.78;;;2.85;;
4738;SDS011;2383;48.632;10.156;2023-07-31T09:08:36;6.57;;;2.30;;
4738;SDS011;2383;48.632;10.156;2023-07-31T09:12:42;4.75;;;2.28;;
4738;SDS011;2383;48.632;10.156;2023-07-31T09:17:05;5.30;;;2.50;;
4738;SDS011;2383;48.632;10.156;2023-07-31T09:21:07;4.95;;;2.00;;
4738;SDS011;2383;48.632;10.156;2023-07-31T09:25:16;3.92;;;2.08;;
4738;SDS011;2383;48.632;10.156;2023-07-31T09:29:19;6.43;;;2.30;;
4738;SDS011;2383;48.632;10.156;2023-07-31T09:33:21;5.93;;;2.33;;
4738;SDS011;2383;48.632;10.156;2023-07-31T09:37:23;5.80;;;2.58;;
4738;SDS011;2383;48.632;10.156;2023-07-31T09:41:25;5.78;;;2.15;;
4738;SDS011;2383;48.632;10.156;2023-07-31T09:45:27;6.05;;;1.90;;
4738;SDS011;2383;48.632;10.156;2023-07-31T09:49:45;3.38;;;2.03;;
4738;SDS011;2383;48.632;10.156;2023-07-31T09:53:50;6.53;;;2.53;;
4738;SDS011;2383;48.632;10.156;2023-07-31T09:57:52;3.35;;;1.90;;
4738;SDS011;2383;48.632;10.156;2023-07-31T10:01:56;6.07;;;2.30;;
4738;SDS011;2383;48.632;10.156;2023-07-31T10:05:58;4.38;;;1.98;;
4738;SDS011;2383;48.632;10.156;2023-07-31T10:10:03;2.83;;;2.00;;
4738;SDS011;2383;48.632;10.156;2023-07-31T10:14:06;4.43;;;2.15;;
4738;SDS011;2383;48.632;10.156;2023-07-31T10:18:09;3.70;;;2.17;;
4738;SDS011;2383;48.632;10.156;2023-07-31T10:22:13;7.72;;;2.60;;
4738;SDS011;2383;48.632;10.156;2023-07-31T10:26:16;4.63;;;2.22;;
4738;SDS011;2383;48.632;10.156;2023-07-31T10:30:22;5.38;;;2.35;;
4738;SDS011;2383;48.632;10.156;2023-07-31T10:34:28;5.32;;;2.28;;
4738;SDS011;2383;48.632;10.156;2023-07-31T10:38:30;2.95;;;2.28;;
4738;SDS011;2383;48.632;10.156;2023-07-31T10:42:33;4.20;;;1.98;;
4738;SDS011;2383;48.632;10.156;2023-07-31T10:46:37;6.22;;;2.05;;
4738;SDS011;2383;48.632;10.156;2023-07-31T10:54:50;5.28;;;2.60;;
4738;SDS011;2383;48.632;10.156;2023-07-31T10:59:35;8.13;;;2.20;;
4738;SDS011;2383;48.632;10.156;2023-07-31T11:03:47;5.18;;;2.17;;
4738;SDS011;2383;48.632;10.156;2023-07-31T11:07:54;4.68;;;2.40;;
4738;SDS011;2383;48.632;10.156;2023-07-31T11:11:58;4.28;;;1.98;;
4738;SDS011;2383;48.632;10.156;2023-07-31T11:16:01;6.10;;;2.22;;
4738;SDS011;2383;48.632;10.156;2023-07-31T11:20:03;3.38;;;1.85;;
4738;SDS011;2383;48.632;10.156;2023-07-31T11:24:05;4.60;;;2.33;;
4738;SDS011;2383;48.632;10.156;2023-07-31T11:28:14;4.95;;;2.28;;
4738;SDS011;2383;48.632;10.156;2023-07-31T11:32:17;4.28;;;2.10;;
4738;SDS011;2383;48.632;10.156;2023-07-31T11:36:20;3.53;;;1.90;;
4738;SDS011;2383;48.632;10.156;2023-07-31T11:40:22;4.07;;;2.33;;
4738;SDS011;2383;48.632;10.156;2023-07-31T11:44:40;2.95;;;1.83;;
4738;SDS011;2383;48.632;10.156;2023-07-31T11:48:49;5.28;;;2.40;;
4738;SDS011;2383;48.632;10.156;2023-07-31T11:52:52;5.22;;;2.42;;
4738;SDS011;2383;48.632;10.156;2023-07-31T11:56:59;4.43;;;2.33;;
4738;SDS011;2383;48.632;10.156;2023-07-31T12:01:02;7.47;;;2.70;;
4738;SDS011;2383;48.632;10.156;2023-07-31T12:05:06;5.63;;;2.35;;
4738;SDS011;2383;48.632;10.156;2023-07-31T12:09:12;5.43;;;2.20;;
4738;SDS011;2383;48.632;10.156;2023-07-31T12:13:20;5.82;;;2.50;;
4738;SDS011;2383;48.632;10.156;2023-07-31T12:17:23;5.30;;;2.20;;
4738;SDS011;2383;48.632;10.156;2023-07-31T12:21:27;5.05;;;2.55;;
4738;SDS011;2383;48.632;10.156;2023-07-31T12:25:29;6.32;;;2.90;;
4738;SDS011;2383;48.632;10.156;2023-07-31T12:29:35;6.88;;;3.00;;
4738;SDS011;2383;48.632;10.156;2023-07-31T12:33:42;3.55;;;2.22;;
4738;SDS011;2383;48.632;10.156;2023-07-31T12:37:45;4.32;;;2.30;;
4738;SDS011;2383;48.632;10.156;2023-07-31T12:41:46;5.38;;;2.65;;
4738;SDS011;2383;48.632;10.156;2023-07-31T12:45:49;4.53;;;2.72;;
4738;SDS011;2383;48.632;10.156;2023-07-31T12:49:51;5.03;;;2.50;;
4738;SDS011;2383;48.632;10.156;2023-07-31T12:53:53;3.53;;;2.40;;
4738;SDS011;2383;48.632;10.156;2023-07-31T12:57:55;4.45;;;2.83;;
4738;SDS011;2383;48.632;10.156;2023-07-31T13:01:57;5.13;;;2.70;;
4738;SDS011;2383;48.632;10.156;2023-07-31T13:05:59;3.90;;;2.50;;
4738;SDS011;2383;48.632;10.156;2023-07-31T13:10:01;6.85;;;2.35;;
4738;SDS011;2383;48.632;10.156;2023-07-31T13:14:04;4.80;;;2.67;;
4738;SDS011;2383;48.632;10.156;2023-07-31T13:18:06;3.78;;;2.42;;
4738;SDS011;2383;48.632;10.156;2023-07-31T13:22:08;6.55;;;3.08;;
4738;SDS011;2383;48.632;10.156;2023-07-31T13:26:10;8.27;;;2.92;;
4738;SDS011;2383;48.632;10.156;2023-07-31T13:30:12;4.72;;;2.70;;
4738;SDS011;2383;48.632;10.156;2023-07-31T13:34:14;4.07;;;2.47;;
4738;SDS011;2383;48.632;10.156;2023-07-31T13:38:16;5.45;;;2.65;;
4738;SDS011;2383;48.632;10.156;2023-07-31T13:42:18;4.68;;;2.95;;
4738;SDS011;2383;48.632;10.156;2023-07-31T13:46:20;5.93;;;2.55;;
4738;SDS011;2383;48.632;10.156;2023-07-31T13:50:22;3.72;;;2.85;;
4738;SDS011;2383;48.632;10.156;2023-07-31T13:54:24;6.95;;;3.22;;
4738;SDS011;2383;48.632;10.156;2023-07-31T13:58:32;3.28;;;2.40;;
4738;SDS011;2383;48.632;10.156;2023-07-31T14:02:35;4.25;;;2.67;;
4738;SDS011;2383;48.632;10.156;2023-07-31T14:06:37;5.50;;;2.90;;
4738;SDS011;2383;48.632;10.156;2023-07-31T14:10:39;6.32;;;2.85;;
4738;SDS011;2383;48.632;10.156;2023-07-31T14:14:42;7.35;;;2.60;;
4738;SDS011;2383;48.632;10.156;2023-07-31T14:18:44;5.75;;;2.95;;
4738;SDS011;2383;48.632;10.156;2023-07-31T14:22:47;6.80;;;2.70;;
4738;SDS011;2383;48.632;10.156;2023-07-31T14:26:49;4.10;;;2.63;;
4738;SDS011;2383;48.632;10.156;2023-07-31T14:30:51;6.68;;;2.90;;
4738;SDS011;2383;48.632;10.156;2023-07-31T14:34:53;6.93;;;2.50;;
4738;SDS011;2383;48.632;10.156;2023-07-31T14:38:56;3.33;;;2.45;;
4738;SDS011;2383;48.632;10.156;2023-07-31T14:42:58;5.15;;;2.65;;
4738;SDS011;2383;48.632;10.156;2023-07-31T14:47:00;4.28;;;2.60;;
4738;SDS011;2383;48.632;10.156;2023-07-31T14:51:02;5.05;;;2.88;;
4738;SDS011;2383;48.632;10.156;2023-07-31T14:55:04;5.70;;;2.88;;
4738;SDS011;2383;48.632;10.156;2023-07-31T14:59:06;4.70;;;3.00;;
4738;SDS011;2383;48.632;10.156;2023-07-31T15:03:09;5.35;;;2.80;;
4738;SDS011;2383;48.632;10.156;2023-07-31T15:07:11;4.70;;;2.58;;
4738;SDS011;2383;48.632;10.156;2023-07-31T15:11:15;4.55;;;2.70;;
4738;SDS011;2383;48.632;10.156;2023-07-31T15:15:17;5.63;;;3.00;;
4738;SDS011;2383;48.632;10.156;2023-07-31T15:19:19;4.95;;;2.65;;
4738;SDS011;2383;48.632;10.156;2023-07-31T15:23:21;6.78;;;2.88;;
4738;SDS011;2383;48.632;10.156;2023-07-31T15:27:25;4.28;;;2.60;;
4738;SDS011;2383;48.632;10.156;2023-07-31T15:31:27;5.97;;;3.00;;
4738;SDS011;2383;48.632;10.156;2023-07-31T15:35:29;5.15;;;2.88;;
4738;SDS011;2383;48.632;10.156;2023-07-31T15:39:31;4.95;;;2.90;;
4738;SDS011;2383;48.632;10.156;2023-07-31T15:43:33;5.63;;;2.97;;
4738;SDS011;2383;48.632;10.156;2023-07-31T15:47:35;6.68;;;2.80;;
4738;SDS011;2383;48.632;10.156;2023-07-31T15:51:38;6.28;;;3.15;;
4738;SDS011;2383;48.632;10.156;2023-07-31T15:55:40;5.07;;;2.63;;
4738;SDS011;2383;48.632;10.156;2023-07-31T15:59:42;5.35;;;2.80;;
4738;SDS011;2383;48.632;10.156;2023-07-31T16:06:35;7.97;;;2.95;;
4738;SDS011;2383;48.632;10.156;2023-07-31T16:10:38;5.40;;;3.15;;
4738;SDS011;2383;48.632;10.156;2023-07-31T16:23:26;5.68;;;3.13;;
4738;SDS011;2383;48.632;10.156;2023-07-31T16:27:28;7.53;;;3.50;;
4738;SDS011;2383;48.632;10.156;2023-07-31T16:31:30;5.38;;;3.22;;
4738;SDS011;2383;48.632;10.156;2023-07-31T16:35:51;8.65;;;3.60;;
4738;SDS011;2383;48.632;10.156;2023-07-31T16:39:53;7.65;;;3.35;;
4738;SDS011;2383;48.632;10.156;2023-07-31T16:43:55;6.93;;;2.90;;
4738;SDS011;2383;48.632;10.156;2023-07-31T16:47:57;7.00;;;3.20;;
4738;SDS011;2383;48.632;10.156;2023-07-31T16:52:00;6.57;;;2.80;;
4738;SDS011;2383;48.632;10.156;2023-07-31T16:56:02;6.03;;;3.20;;
4738;SDS011;2383;48.632;10.156;2023-07-31T17:00:04;6.63;;;2.97;;
4738;SDS011;2383;48.632;10.156;2023-07-31T17:04:06;5.50;;;2.90;;
4738;SDS011;2383;48.632;10.156;2023-07-31T17:08:09;4.75;;;2.90;;
4738;SDS011;2383;48.632;10.156;2023-07-31T17:12:11;5.15;;;2.70;;
4738;SDS011;2383;48.632;10.156;2023-07-31T17:16:13;4.60;;;2.70;;
4738;SDS011;2383;48.632;10.156;2023-07-31T17:20:15;8.68;;;3.05;;
4738;SDS011;2383;48.632;10.156;2023-07-31T17:24:19;7.10;;;3.20;;
4738;SDS011;2383;48.632;10.156;2023-07-31T17:28:21;3.58;;;2.60;;
4738;SDS011;2383;48.632;10.156;2023-07-31T17:32:23;6.78;;;3.35;;
4738;SDS011;2383;48.632;10.156;2023-07-31T17:36:26;4.43;;;2.95;;
4738;SDS011;2383;48.632;10.156;2023-07-31T17:40:28;5.07;;;2.90;;
4738;SDS011;2383;48.632;10.156;2023-07-31T17:44:29;4.15;;;2.70;;
4738;SDS011;2383;48.632;10.156;2023-07-31T17:48:31;4.40;;;2.95;;
4738;SDS011;2383;48.632;10.156;2023-07-31T17:52:33;3.55;;;2.70;;
4738;SDS011;2383;48.632;10.156;2023-07-31T17:56:36;5.13;;;2.85;;
4738;SDS011;2383;48.632;10.156;2023-07-31T18:00:40;4.18;;;2.70;;
4738;SDS011;2383;48.632;10.156;2023-07-31T18:04:42;5.15;;;2.95;;
4738;SDS011;2383;48.632;10.156;2023-07-31T18:08:44;6.32;;;2.90;;
4738;SDS011;2383;48.632;10.156;2023-07-31T18:12:46;4.95;;;2.85;;
4738;SDS011;2383;48.632;10.156;2023-07-31T18:16:48;7.50;;;3.17;;
4738;SDS011;2383;48.632;10.156;2023-07-31T18:20:50;4.90;;;3.05;;
4738;SDS011;2383;48.632;10.156;2023-07-31T18:24:52;3.70;;;2.80;;
4738;SDS011;2383;48.632;10.156;2023-07-31T18:28:54;3.03;;;2.38;;
4738;SDS011;2383;48.632;10.156;2023-07-31T18:32:56;3.58;;;2.70;;
4738;SDS011;2383;48.632;10.156;2023-07-31T18:36:58;3.97;;;2.97;;
4738;SDS011;2383;48.632;10.156;2023-07-31T18:41:00;5.07;;;3.00;;
4738;SDS011;2383;48.632;10.156;2023-07-31T18:45:05;4.30;;;2.70;;
4738;SDS011;2383;48.632;10.156;2023-07-31T18:49:07;4.47;;;2.60;;
4738;SDS011;2383;48.632;10.156;2023-07-31T18:53:09;3.85;;;2.85;;
4738;SDS011;2383;48.632;10.156;2023-07-31T18:57:12;7.28;;;3.00;;
4738;SDS011;2383;48.632;10.156;2023-07-31T19:01:14;4.32;;;2.90;;
4738;SDS011;2383;48.632;10.156;2023-07-31T19:05:16;11.13;;;2.80;;
4738;SDS011;2383;48.632;10.156;2023-07-31T19:09:29;5.70;;;3.00;;
4738;SDS011;2383;48.632;10.156;2023-07-31T19:13:33;6.13;;;3.03;;
4738;SDS011;2383;48.632;10.156;2023-07-31T19:17:37;6.40;;;2.80;;
4738;SDS011;2383;48.632;10.156;2023-07-31T19:21:40;5.57;;;3.08;;
4738;SDS011;2383;48.632;10.156;2023-07-31T19:25:42;6.82;;;2.92;;
4738;SDS011;2383;48.632;10.156;2023-07-31T19:29:44;6.85;;;3.47;;
4738;SDS011;2383;48.632;10.156;2023-07-31T19:33:46;7.50;;;3.10;;
4738;SDS011;2383;48.632;10.156;2023-07-31T19:37:48;3.92;;;2.70;;
4738;SDS011;2383;48.632;10.156;2023-07-31T19:41:50;4.43;;;2.70;;
4738;SDS011;2383;48.632;10.156;2023-07-31T19:45:53;4.63;;;2.80;;
4738;SDS011;2383;48.632;10.156;2023-07-31T19:49:55;6.53;;;3.05;;
4738;SDS011;2383;48.632;10.156;2023-07-31T19:53:58;6.75;;;3.38;;
4738;SDS011;2383;48.632;10.156;2023-07-31T19:58:00;6.72;;;3.13;;
4738;SDS011;2383;48.632;10.156;2023-07-31T20:02:02;8.40;;;3.47;;
4738;SDS011;2383;48.632;10.156;2023-07-31T20:06:04;8.60;;;3.25;;
4738;SDS011;2383;48.632;10.156;2023-07-31T20:10:07;4.55;;;3.20;;
4738;SDS011;2383;48.632;10.156;2023-07-31T20:14:09;5.60;;;3.15;;
4738;SDS011;2383;48.632;10.156;2023-07-31T20:18:11;5.80;;;3.00;;
4738;SDS011;2383;48.632;10.156;2023-07-31T20:22:13;5.60;;;3.25;;
4738;SDS011;2383;48.632;10.156;2023-07-31T20:26:15;8.98;;;3.13;;
4738;SDS011;2383;48.632;10.156;2023-07-31T20:30:17;6.57;;;3.30;;
4738;SDS011;2383;48.632;10.156;2023-07-31T20:34:19;6.15;;;3.25;;
4738;SDS011;2383;48.632;10.156;2023-07-31T20:38:22;6.53;;;3.20;;
4738;SDS011;2383;48.632;10.156;2023-07-31T20:42:25;6.90;;;3.80;;
4738;SDS011;2383;48.632;10.156;2023-07-31T20:46:28;7.13;;;3.60;;
4738;SDS011;2383;48.632;10.156;2023-07-31T20:50:30;7.47;;;3.80;;
4738;SDS011;2383;48.632;10.156;2023-07-31T20:54:33;5.22;;;3.65;;
4738;SDS011;2383;48.632;10.156;2023-07-31T20:58:36;6.75;;;3.83;;
4738;SDS011;2383;48.632;10.156;2023-07-31T21:02:39;6.78;;;3.88;;
4738;SDS011;2383;48.632;10.156;2023-07-31T21:06:41;4.75;;;2.75;;
4738;SDS011;2383;48.632;10.156;2023-07-31T21:10:43;6.45;;;3.42;;
4738;SDS011;2383;48.632;10.156;2023-07-31T21:14:46;4.75;;;3.25;;
4738;SDS011;2383;48.632;10.156;2023-07-31T21:18:48;6.78;;;3.58;;
4738;SDS011;2383;48.632;10.156;2023-07-31T21:22:50;3.30;;;2.60;;
4738;SDS011;2383;48.632;10.156;2023-07-31T21:26:52;5.22;;;3.53;;
4738;SDS011;2383;48.632;10.156;2023-07-31T21:30:54;4.43;;;3.38;;
4738;SDS011;2383;48.632;10.156;2023-07-31T21:34:56;4.70;;;3.25;;
4738;SDS011;2383;48.632;10.156;2023-07-31T21:38:58;5.28;;;3.70;;
4738;SDS011;2383;48.632;10.156;2023-07-31T21:43:00;7.90;;;3.97;;
4738;SDS011;2383;48.632;10.156;2023-07-31T21:47:03;8.48;;;4.15;;
4738;SDS011;2383;48.632;10.156;2023-07-31T21:51:05;4.88;;;3.80;;
4738;SDS011;2383;48.632;10.156;2023-07-31T21:55:08;6.97;;;4.47;;
4738;SDS011;2383;48.632;10.156;2023-07-31T21:59:10;10.60;;;5.22;;
4738;SDS011;2383;48.632;10.156;2023-07-31T22:03:12;6.57;;;3.75;;
4738;SDS011;2383;48.632;10.156;2023-07-31T22:07:15;10.00;;;4.10;;
4738;SDS011;2383;48.632;10.156;2023-07-31T22:11:17;6.05;;;3.40;;
4738;SDS011;2383;48.632;10.156;2023-07-31T22:15:21;7.85;;;4.63;;
4738;SDS011;2383;48.632;10.156;2023-07-31T22:19:23;5.90;;;3.80;;
4738;SDS011;2383;48.632;10.156;2023-07-31T22:23:25;6.13;;;4.53;;
4738;SDS011;2383;48.632;10.156;2023-07-31T22:27:27;7.70;;;4.00;;
4738;SDS011;2383;48.632;10.156;2023-07-31T22:31:29;6.72;;;4.10;;
4738;SDS011;2383;48.632;10.156;2023-07-31T22:35:31;7.82;;;3.83;;
4738;SDS011;2383;48.632;10.156;2023-07-31T22:39:33;4.63;;;3.72;;
4738;SDS011;2383;48.632;10.156;2023-07-31T22:43:36;7.05;;;4.40;;
4738;SDS011;2383;48.632;10.156;2023-07-31T22:47:38;6.18;;;4.18;;
4738;SDS011;2383;48.632;10.156;2023-07-31T22:51:42;7.78;;;4.18;;
4738;SDS011;2383;48.632;10.156;2023-07-31T22:55:43;8.52;;;4.30;;
4738;SDS011;2383;48.632;10.156;2023-07-31T22:59:46;6.68;;;4.07;;
4738;SDS011;2383;48.632;10.156;2023-07-31T23:03:47;7.55;;;4.25;;
4738;SDS011;2383;48.632;10.156;2023-07-31T23:07:50;6.45;;;3.63;;
4738;SDS011;2383;48.632;10.156;2023-07-31T23:11:51;8.15;;;4.18;;
4738;SDS011;2383;48.632;10.156;2023-07-31T23:15:53;14.30;;;4.07;;
4738;SDS011;2383;48.632;10.156;2023-07-31T23:19:55;8.65;;;4.28;;
4738;SDS011;2383;48.632;10.156;2023-07-31T23:23:58;9.45;;;4.18;;
4738;SDS011;2383;48.632;10.156;2023-07-31T23:28:00;8.13;;;4.35;;
4738;SDS011;2383;48.632;10.156;2023-07-31T23:32:02;11.45;;;4.80;;
4738;SDS011;2383;48.632;10.156;2023-07-31T23:36:11;7.82;;;4.35;;
4738;SDS011;2383;48.632;10.156;2023-07-31T23:40:13;5.40;;;4.00;;
4738;SDS011;2383;48.632;10.156;2023-07-31T23:44:15;10.00;;;4.20;;
4738;SDS011;2383;48.632;10.156;2023-07-31T23:48:17;6.93;;;3.97;;
4738;SDS011;2383;48.632;10.156;2023-07-31T23:52:19;5.35;;;4.07;;
4738;SDS011;2383;48.632;10.156;2023-07-31T23:56:21;8.68;;;4.20;;
